createdAt,value
2023-01-28T00:00:54.519Z,102907.28
2023-01-28T00:03:21.269Z,102902.88
2023-01-28T00:05:47.936Z,102909.88
2023-01-28T00:08:14.876Z,102912.41
2023-01-28T00:10:43.048Z,102913.84
2023-01-28T00:13:14.605Z,102921.09
2023-01-28T00:15:41.726Z,102921.53
2023-01-28T00:18:08.449Z,102929.06
2023-01-28T00:20:35.536Z,102930.06
2023-01-28T00:23:02.363Z,102922.66
2023-01-28T00:25:29.125Z,102934.75
2023-01-28T00:27:55.734Z,102929.34
2023-01-28T00:30:22.363Z,102927.66
2023-01-28T00:32:49.058Z,102926.66
2023-01-28T00:35:16.193Z,102932.34
2023-01-28T00:37:45.766Z,102933.50
2023-01-28T00:40:12.852Z,102936.03
2023-01-28T00:42:39.665Z,102930.94
2023-01-28T00:45:06.700Z,102930.63
2023-01-28T00:47:33.369Z,102928.78
2023-01-28T00:50:00.011Z,102921.84
2023-01-28T00:52:27.649Z,102932.34
2023-01-28T00:54:54.507Z,102932.78
2023-01-28T00:57:21.160Z,102935.34
2023-01-28T00:59:47.876Z,102938.06
2023-01-28T01:02:14.561Z,102935.91
2023-01-28T01:04:41.346Z,102941.63
2023-01-28T01:07:08.162Z,102945.44
2023-01-28T01:09:34.758Z,102942.72
2023-01-28T01:12:01.720Z,102941.75
2023-01-28T01:14:28.435Z,102933.22
2023-01-28T01:16:55.047Z,102934.91
2023-01-28T01:19:21.726Z,102936.63
2023-01-28T01:21:50.726Z,102932.50
2023-01-28T01:24:17.767Z,102938.91
2023-01-28T01:26:44.590Z,102944.31
2023-01-28T01:29:11.326Z,102936.06
2023-01-28T01:31:38.374Z,102928.66
2023-01-28T01:34:05.243Z,102925.97
2023-01-28T01:36:31.951Z,102928.09
2023-01-28T01:38:58.711Z,102932.38
2023-01-28T01:41:33.233Z,102939.34
2023-01-28T01:44:02.250Z,102949.72
2023-01-28T01:46:45.584Z,102945.91
2023-01-28T01:49:30.422Z,102942.03
2023-01-28T01:52:03.118Z,102946.03
2023-01-28T01:54:32.043Z,102944.31
2023-01-28T01:57:00.993Z,102941.22
2023-01-28T01:59:32.170Z,102942.50
2023-01-28T02:02:03.439Z,102944.91
2023-01-28T02:04:33.716Z,102953.69
2023-01-28T02:07:01.940Z,102949.75
2023-01-28T02:09:38.512Z,102949.19
2023-01-28T02:12:16.900Z,102953.84
2023-01-28T02:15:06.241Z,102957.97
2023-01-28T02:17:33.104Z,102945.31
2023-01-28T02:20:17.027Z,102960.09
2023-01-28T02:22:46.517Z,102950.84
2023-01-28T02:25:37.419Z,102952.28
2023-01-28T02:28:24.708Z,102956.13
2023-01-28T02:31:04.673Z,102955.84
2023-01-28T02:33:39.992Z,102958.56
2023-01-28T02:36:30.467Z,102947.88
2023-01-28T02:39:01.687Z,102951.72
2023-01-28T02:41:37.196Z,102949.72
2023-01-28T02:44:04.086Z,102939.47
2023-01-28T02:46:49.235Z,102944.31
2023-01-28T02:49:27.802Z,102948.59
2023-01-28T02:52:42.280Z,102947.59
2023-01-28T02:55:25.555Z,102951.31
2023-01-28T02:58:10.879Z,102953.16
2023-01-28T03:00:46.082Z,102954.56
2023-01-28T03:03:22.473Z,102960.53
2023-01-28T03:06:06.821Z,102954.28
2023-01-28T03:09:06.888Z,102953.41
2023-01-28T03:11:56.434Z,102954.00
2023-01-28T03:14:43.037Z,102955.97
2023-01-28T03:17:37.201Z,102966.22
2023-01-28T03:20:23.856Z,102962.38
2023-01-28T03:23:14.613Z,102965.66
2023-01-28T03:26:04.809Z,102961.13
2023-01-28T03:28:52.909Z,102958.09
2023-01-28T03:31:40.822Z,102957.28
2023-01-28T03:34:28.581Z,102957.81
2023-01-28T03:36:56.500Z,102962.69
2023-01-28T03:39:32.199Z,102956.53
2023-01-28T03:42:10.776Z,102951.00
2023-01-28T03:44:52.496Z,102952.59
2023-01-28T03:47:25.633Z,102955.13
2023-01-28T03:49:54.689Z,102956.72
2023-01-28T03:52:25.561Z,102960.69
2023-01-28T03:54:54.743Z,102961.38
2023-01-28T03:57:24.580Z,102964.22
2023-01-28T03:59:52.736Z,102958.56
2023-01-28T04:02:22.397Z,102976.88
2023-01-28T04:04:51.291Z,102975.88
2023-01-28T04:07:18.445Z,102975.31
2023-01-28T04:10:20.448Z,102978.84
2023-01-28T04:12:54.835Z,102981.97
2023-01-28T04:15:24.005Z,102988.09
2023-01-28T04:17:50.970Z,102990.94
2023-01-28T04:20:43.485Z,102987.66
2023-01-28T04:23:10.117Z,102983.69
2023-01-28T04:25:36.706Z,102992.38
2023-01-28T04:28:07.672Z,102985.97
2023-01-28T04:30:34.844Z,102975.88
2023-01-28T04:33:30.582Z,102971.34
2023-01-28T04:36:01.993Z,102973.59
2023-01-28T04:38:34.387Z,102967.78
2023-01-28T04:41:27.528Z,102965.63
2023-01-28T04:43:58.019Z,102979.44
2023-01-28T04:46:33.044Z,102970.16
2023-01-28T04:49:09.240Z,102981.56
2023-01-28T04:51:42.067Z,102982.38
2023-01-28T04:54:31.332Z,102985.94
2023-01-28T04:57:01.202Z,102988.66
2023-01-28T04:59:27.909Z,102982.38
2023-01-28T05:01:54.507Z,102987.94
2023-01-28T05:04:21.802Z,102990.19
2023-01-28T05:06:48.410Z,102994.91
2023-01-28T05:09:18.437Z,102990.78
2023-01-28T05:11:45.070Z,102983.25
2023-01-28T05:14:12.498Z,102991.19
2023-01-28T05:16:44.349Z,103001.97
2023-01-28T05:19:11.727Z,103009.25
2023-01-28T05:21:42.779Z,103001.16
2023-01-28T05:24:18.357Z,102987.91
2023-01-28T05:26:45.039Z,102994.91
2023-01-28T05:29:11.876Z,102986.63
2023-01-28T05:31:39.404Z,102982.09
2023-01-28T05:34:05.966Z,102985.53
2023-01-28T05:36:32.681Z,102984.63
2023-01-28T05:39:06.288Z,102994.16
2023-01-28T05:41:33.024Z,102994.03
2023-01-28T05:44:02.059Z,102975.13
2023-01-28T05:46:36.169Z,102975.28
2023-01-28T05:49:13.234Z,102981.53
2023-01-28T05:51:56.370Z,102987.22
2023-01-28T05:54:22.922Z,102983.38
2023-01-28T05:56:49.468Z,102989.75
2023-01-28T05:59:18.156Z,102997.84
2023-01-28T06:01:46.505Z,102986.47
2023-01-28T06:04:13.125Z,102995.31
2023-01-28T06:06:39.626Z,102992.88
2023-01-28T06:09:06.154Z,102994.00
2023-01-28T06:11:33.780Z,102996.84
2023-01-28T06:14:03.278Z,103002.66
2023-01-28T06:16:48.597Z,102996.13
2023-01-28T06:19:35.464Z,102988.75
2023-01-28T06:22:02.073Z,102997.09
2023-01-28T06:24:28.642Z,102992.16
2023-01-28T06:26:55.373Z,102997.66
2023-01-28T06:29:21.934Z,102994.56
2023-01-28T06:31:48.473Z,102995.84
2023-01-28T06:34:15.459Z,103000.25
2023-01-28T06:36:42.033Z,102998.53
2023-01-28T06:39:08.620Z,103000.09
2023-01-28T06:41:35.144Z,103000.25
2023-01-28T06:44:02.144Z,103003.66
2023-01-28T06:46:28.707Z,103009.03
2023-01-28T06:48:55.262Z,103011.75
2023-01-28T06:51:21.778Z,103002.94
2023-01-28T06:53:48.304Z,102998.25
2023-01-28T06:56:14.781Z,102997.25
2023-01-28T06:58:41.389Z,103008.81
2023-01-28T07:01:08.032Z,103013.75
2023-01-28T07:03:34.590Z,103011.03
2023-01-28T07:06:01.163Z,103009.44
2023-01-28T07:08:27.677Z,103015.56
2023-01-28T07:10:54.204Z,103009.03
2023-01-28T07:13:20.738Z,103017.53
2023-01-28T07:15:48.365Z,103030.34
2023-01-28T07:18:15.038Z,103028.75
2023-01-28T07:20:42.076Z,103038.56
2023-01-28T07:23:08.609Z,103036.84
2023-01-28T07:25:35.134Z,103028.75
2023-01-28T07:28:01.716Z,103046.81
2023-01-28T07:30:28.304Z,103046.53
2023-01-28T07:32:56.277Z,103054.03
2023-01-28T07:35:23.311Z,103052.03
2023-01-28T07:37:57.420Z,103063.81
2023-01-28T07:40:25.194Z,103056.75
2023-01-28T07:42:52.587Z,103057.25
2023-01-28T07:45:21.928Z,103053.03
2023-01-28T07:48:03.351Z,103061.97
2023-01-28T07:50:31.492Z,103057.50
2023-01-28T07:52:58.750Z,103056.19
2023-01-28T07:55:25.596Z,103065.22
2023-01-28T07:57:54.487Z,103047.63
2023-01-28T08:00:22.964Z,103049.50
2023-01-28T08:02:50.577Z,103048.47
2023-01-28T08:05:19.317Z,103056.75
2023-01-28T08:07:48.306Z,103059.44
2023-01-28T08:10:18.847Z,103061.06
2023-01-28T08:12:55.878Z,103073.06
2023-01-28T08:15:23.279Z,103071.91
2023-01-28T08:17:49.783Z,103072.94
2023-01-28T08:20:17.241Z,103085.28
2023-01-28T08:22:43.955Z,103087.69
2023-01-28T08:25:10.482Z,103091.34
2023-01-28T08:27:37.184Z,103086.81
2023-01-28T08:30:04.124Z,103089.91
2023-01-28T08:32:30.935Z,103090.66
2023-01-28T08:34:57.682Z,103094.78
2023-01-28T08:37:24.310Z,103098.19
2023-01-28T08:39:51.043Z,103096.47
2023-01-28T08:42:17.552Z,103106.19
2023-01-28T08:44:44.066Z,103099.06
2023-01-28T08:47:10.662Z,103100.88
2023-01-28T08:49:37.273Z,103093.78
2023-01-28T08:52:03.837Z,103108.13
2023-01-28T08:54:30.311Z,103109.09
2023-01-28T08:56:56.837Z,103106.41
2023-01-28T08:59:23.330Z,103118.97
2023-01-28T09:01:49.913Z,103105.59
2023-01-28T09:04:16.477Z,103111.38
2023-01-28T09:06:43.006Z,103111.50
2023-01-28T09:09:09.504Z,103115.06
2023-01-28T09:11:36.046Z,103130.50
2023-01-28T09:14:02.569Z,103128.53
2023-01-28T09:16:29.170Z,103141.28
2023-01-28T09:18:55.728Z,103137.75
2023-01-28T09:21:22.220Z,103129.91
2023-01-28T09:23:48.815Z,103131.34
2023-01-28T09:26:15.337Z,103148.56
2023-01-28T09:28:41.909Z,103133.63
2023-01-28T09:31:10.932Z,103164.00
2023-01-28T09:33:39.314Z,103159.16
2023-01-28T09:36:07.775Z,103159.00
2023-01-28T09:38:37.103Z,103165.13
2023-01-28T09:41:24.756Z,103153.75
2023-01-28T09:44:05.446Z,103166.13
2023-01-28T09:46:35.707Z,103166.00
2023-01-28T09:49:12.151Z,103165.41
2023-01-28T09:51:45.341Z,103169.94
2023-01-28T09:54:52.142Z,103164.28
2023-01-28T09:57:39.571Z,103160.59
2023-01-28T10:00:55.712Z,103163.72
2023-01-28T10:03:32.517Z,103179.59
2023-01-28T10:06:20.363Z,103183.03
2023-01-28T10:08:58.868Z,103183.16
2023-01-28T10:11:44.184Z,103184.13
2023-01-28T10:14:37.811Z,103189.41
2023-01-28T10:17:18.662Z,103184.78
2023-01-28T10:19:58.944Z,103189.53
2023-01-28T10:22:57.892Z,103182.50
2023-01-28T10:25:32.120Z,103190.28
2023-01-28T10:28:01.379Z,103187.63
2023-01-28T10:30:33.246Z,103181.31
2023-01-28T10:33:03.286Z,103178.44
2023-01-28T10:35:38.360Z,103183.69
2023-01-28T10:38:08.461Z,103185.59
2023-01-28T10:40:36.477Z,103167.75
2023-01-28T10:43:03.294Z,103158.88
2023-01-28T10:45:45.735Z,103168.53
2023-01-28T10:48:29.237Z,103173.34
2023-01-28T10:51:02.511Z,103166.50
2023-01-28T10:53:39.592Z,103177.88
2023-01-28T10:56:28.583Z,103169.88
2023-01-28T10:59:04.391Z,103171.63
2023-01-28T11:01:43.849Z,103179.47
2023-01-28T11:04:23.763Z,103176.50
2023-01-28T11:07:16.270Z,103164.94
2023-01-28T11:09:49.897Z,103153.72
2023-01-28T11:12:28.614Z,103150.44
2023-01-28T11:14:57.511Z,103150.44
2023-01-28T11:17:27.232Z,103154.84
2023-01-28T11:19:55.279Z,103150.31
2023-01-28T11:22:25.509Z,103145.03
2023-01-28T11:24:52.198Z,103129.31
2023-01-28T11:27:22.547Z,103133.72
2023-01-28T11:29:49.057Z,103131.75
2023-01-28T11:32:20.400Z,103121.69
2023-01-28T11:34:52.491Z,103119.88
2023-01-28T11:37:22.849Z,103123.25
2023-01-28T11:39:49.472Z,103110.72
2023-01-28T11:42:19.327Z,103117.13
2023-01-28T11:44:49.985Z,103109.34
2023-01-28T11:47:48.828Z,103093.16
2023-01-28T11:50:24.451Z,103077.09
2023-01-28T11:53:06.893Z,103073.28
2023-01-28T11:55:53.264Z,103049.41
2023-01-28T11:58:26.275Z,103038.34
2023-01-28T12:01:03.265Z,103038.97
2023-01-28T12:03:55.069Z,103040.66
2023-01-28T12:06:30.348Z,103041.09
2023-01-28T12:09:15.501Z,103033.16
2023-01-28T12:12:18.618Z,103024.50
2023-01-28T12:14:57.888Z,103024.91
2023-01-28T12:17:31.014Z,103020.81
2023-01-28T12:20:18.603Z,103031.34
2023-01-28T12:22:47.832Z,103042.44
2023-01-28T12:25:37.009Z,103038.16
2023-01-28T12:28:11.535Z,103054.69
2023-01-28T12:30:53.253Z,103068.59
2023-01-28T12:33:38.363Z,103065.63
2023-01-28T12:36:07.757Z,103069.47
2023-01-28T12:38:50.599Z,103068.91
2023-01-28T12:41:20.700Z,103072.75
2023-01-28T12:44:00.417Z,103072.59
2023-01-28T12:46:39.305Z,103082.69
2023-01-28T12:49:21.441Z,103080.28
2023-01-28T12:51:58.855Z,103077.16
2023-01-28T12:54:35.700Z,103075.84
2023-01-28T12:57:03.203Z,103077.13
2023-01-28T12:59:54.832Z,103071.84
2023-01-28T13:02:26.591Z,103064.31
2023-01-28T13:05:08.220Z,103058.91
2023-01-28T13:07:56.518Z,103076.84
2023-01-28T13:10:29.507Z,103073.16
2023-01-28T13:12:56.775Z,103079.13
2023-01-28T13:15:24.798Z,103060.91
2023-01-28T13:18:02.965Z,103062.91
2023-01-28T13:20:38.937Z,103062.50
2023-01-28T13:23:22.780Z,103070.88
2023-01-28T13:25:51.934Z,103049.41
2023-01-28T13:28:33.620Z,103051.97
2023-01-28T13:31:17.543Z,103037.31
2023-01-28T13:33:55.740Z,103047.84
2023-01-28T13:36:31.424Z,103038.59
2023-01-28T13:39:14.347Z,103034.47
2023-01-28T13:41:48.792Z,103031.78
2023-01-28T13:44:35.984Z,103029.19
2023-01-28T13:47:05.394Z,103002.56
2023-01-28T13:49:40.164Z,103003.56
2023-01-28T13:52:23.077Z,102994.88
2023-01-28T13:55:23.215Z,102992.00
2023-01-28T13:58:13.191Z,102970.94
2023-01-28T14:01:16.974Z,102972.91
2023-01-28T14:04:12.567Z,102973.19
2023-01-28T14:06:56.316Z,102984.00
2023-01-28T14:10:08.463Z,102988.69
2023-01-28T14:12:42.947Z,102985.13
2023-01-28T14:15:32.902Z,102988.25
2023-01-28T14:18:00.633Z,102998.94
2023-01-28T14:20:37.551Z,103010.88
2023-01-28T14:23:06.548Z,103022.75
2023-01-28T14:25:48.045Z,103025.59
2023-01-28T14:28:29.473Z,103021.63
2023-01-28T14:31:04.624Z,103010.25
2023-01-28T14:33:32.848Z,103017.63
2023-01-28T14:35:59.442Z,103012.69
2023-01-28T14:38:26.059Z,103017.06
2023-01-28T14:40:54.735Z,103023.06
2023-01-28T14:43:27.401Z,103032.75
2023-01-28T14:46:04.134Z,103034.47
2023-01-28T14:48:58.541Z,103032.31
2023-01-28T14:51:44.167Z,103026.47
2023-01-28T14:54:17.676Z,103018.91
2023-01-28T14:57:05.812Z,103021.63
2023-01-28T15:00:02.085Z,103017.03
2023-01-28T15:02:31.726Z,103020.75
2023-01-28T15:05:16.601Z,103004.78
2023-01-28T15:07:48.889Z,103018.75
2023-01-28T15:10:17.690Z,103009.63
2023-01-28T15:12:57.965Z,103005.41
2023-01-28T15:15:30.755Z,103005.81
2023-01-28T15:18:02.507Z,103014.09
2023-01-28T15:20:29.172Z,103015.09
2023-01-28T15:22:55.729Z,103017.50
2023-01-28T15:25:24.333Z,103034.03
2023-01-28T15:27:54.752Z,103037.72
2023-01-28T15:30:25.234Z,103038.72
2023-01-28T15:33:04.106Z,103044.41
2023-01-28T15:35:31.739Z,103044.56
2023-01-28T15:37:58.772Z,103051.53
2023-01-28T15:40:26.036Z,103055.81
2023-01-28T15:42:54.924Z,103064.34
2023-01-28T15:45:22.800Z,103072.16
2023-01-28T15:47:51.677Z,103065.75
2023-01-28T15:50:24.482Z,103081.97
2023-01-28T15:52:55.263Z,103085.28
2023-01-28T15:55:33.560Z,103089.13
2023-01-28T15:58:19.759Z,103095.34
2023-01-28T16:00:48.010Z,103088.69
2023-01-28T16:03:22.092Z,103095.66
2023-01-28T16:05:58.881Z,103090.81
2023-01-28T16:08:39.332Z,103079.03
2023-01-28T16:11:07.272Z,103087.38
2023-01-28T16:13:34.799Z,103080.28
2023-01-28T16:16:03.808Z,103078.41
2023-01-28T16:18:47.367Z,103068.75
2023-01-28T16:21:27.977Z,103070.91
2023-01-28T16:24:20.197Z,103060.66
2023-01-28T16:26:55.208Z,103054.38
2023-01-28T16:29:21.740Z,103060.94
2023-01-28T16:31:48.264Z,103076.88
2023-01-28T16:34:14.816Z,103084.69
2023-01-28T16:36:41.344Z,103081.13
2023-01-28T16:39:07.926Z,103081.25
2023-01-28T16:41:40.394Z,103081.13
2023-01-28T16:44:07.175Z,103071.03
2023-01-28T16:46:33.863Z,103067.75
2023-01-28T16:49:00.542Z,103073.84
2023-01-28T16:51:27.134Z,103084.25
2023-01-28T16:53:54.036Z,103086.66
2023-01-28T16:56:44.547Z,103072.44
2023-01-28T16:59:11.770Z,103077.56
2023-01-28T17:01:38.617Z,103082.09
2023-01-28T17:04:11.766Z,103079.38
2023-01-28T17:06:39.325Z,103099.56
2023-01-28T17:09:06.043Z,103091.47
2023-01-28T17:11:33.681Z,103077.78
2023-01-28T17:14:01.051Z,103075.53
2023-01-28T17:16:28.224Z,103075.66
2023-01-28T17:18:55.127Z,103077.53
2023-01-28T17:21:21.931Z,103083.34
2023-01-28T17:23:48.481Z,103094.00
2023-01-28T17:26:16.247Z,103114.72
2023-01-28T17:28:43.436Z,103107.44
2023-01-28T17:31:12.392Z,103093.69
2023-01-28T17:33:40.345Z,103093.41
2023-01-28T17:36:07.673Z,103095.78
2023-01-28T17:38:34.245Z,103093.06
2023-01-28T17:41:05.570Z,103085.94
2023-01-28T17:43:32.195Z,103085.81
2023-01-28T17:45:58.809Z,103083.81
2023-01-28T17:48:25.441Z,103075.72
2023-01-28T17:50:56.359Z,103078.00
2023-01-28T17:53:23.044Z,103079.75
2023-01-28T17:55:49.575Z,103080.09
2023-01-28T17:58:16.103Z,103076.69
2023-01-28T18:00:42.678Z,103095.75
2023-01-28T18:03:12.186Z,103095.88
2023-01-28T18:05:38.852Z,103085.06
2023-01-28T18:08:05.875Z,103089.47
2023-01-28T18:10:32.360Z,103098.50
2023-01-28T18:12:58.829Z,103102.97
2023-01-28T18:15:25.458Z,103107.72
2023-01-28T18:17:52.461Z,103097.97
2023-01-28T18:20:19.100Z,103118.13
2023-01-28T18:22:45.656Z,103109.28
2023-01-28T18:25:15.897Z,103126.63
2023-01-28T18:27:42.912Z,103121.81
2023-01-28T18:30:10.297Z,103130.09
2023-01-28T18:32:36.873Z,103121.50
2023-01-28T18:35:03.659Z,103120.09
2023-01-28T18:37:30.134Z,103121.34
2023-01-28T18:39:56.620Z,103120.63
2023-01-28T18:42:23.148Z,103128.84
2023-01-28T18:44:49.716Z,103128.81
2023-01-28T18:47:16.302Z,103125.28
2023-01-28T18:49:43.166Z,103125.63
2023-01-28T18:52:10.376Z,103138.78
2023-01-28T18:54:36.840Z,103145.59
2023-01-28T18:57:03.390Z,103135.78
2023-01-28T18:59:29.895Z,103134.31
2023-01-28T19:01:56.408Z,103135.06
2023-01-28T19:04:22.964Z,103130.94
2023-01-28T19:06:49.637Z,103127.38
2023-01-28T19:09:17.377Z,103130.47
2023-01-28T19:11:43.932Z,103124.75
2023-01-28T19:14:15.793Z,103131.00
2023-01-28T19:16:43.448Z,103133.94
2023-01-28T19:19:10.071Z,103124.66
2023-01-28T19:21:37.684Z,103118.03
2023-01-28T19:24:09.063Z,103135.44
2023-01-28T19:26:36.517Z,103138.75
2023-01-28T19:29:03.089Z,103134.97
2023-01-28T19:31:29.746Z,103143.94
2023-01-28T19:33:59.002Z,103144.00
2023-01-28T19:36:27.404Z,103142.28
2023-01-28T19:38:58.987Z,103158.88
2023-01-28T19:41:26.229Z,103145.28
2023-01-28T19:43:52.761Z,103140.94
2023-01-28T19:46:19.355Z,103150.38
2023-01-28T19:48:46.103Z,103140.47
2023-01-28T19:51:14.338Z,103153.63
2023-01-28T19:53:42.228Z,103153.63
2023-01-28T19:56:18.773Z,103155.06
2023-01-28T19:58:45.870Z,103161.44
2023-01-28T20:01:18.071Z,103153.09
2023-01-28T20:03:45.730Z,103149.53
2023-01-28T20:06:14.705Z,103156.91
2023-01-28T20:08:42.103Z,103148.34
2023-01-28T20:11:14.847Z,103151.66
2023-01-28T20:13:44.768Z,103148.63
2023-01-28T20:16:19.163Z,103148.94
2023-01-28T20:18:56.967Z,103143.69
2023-01-28T20:21:23.513Z,103139.28
2023-01-28T20:23:52.642Z,103142.84
2023-01-28T20:26:22.931Z,103134.97
2023-01-28T20:28:50.774Z,103130.31
2023-01-28T20:31:19.070Z,103136.69
2023-01-28T20:33:45.844Z,103134.16
2023-01-28T20:36:13.657Z,103134.00
2023-01-28T20:38:45.151Z,103136.41
2023-01-28T20:41:14.324Z,103137.16
2023-01-28T20:43:44.011Z,103143.34
2023-01-28T20:46:22.510Z,103146.03
2023-01-28T20:48:50.114Z,103130.44
2023-01-28T20:51:22.457Z,103129.16
2023-01-28T20:53:49.915Z,103117.97
2023-01-28T20:56:19.782Z,103118.09
2023-01-28T20:58:49.350Z,103120.78
2023-01-28T21:01:20.761Z,103122.31
2023-01-28T21:03:47.780Z,103114.34
2023-01-28T21:06:14.669Z,103122.16
2023-01-28T21:08:41.660Z,103113.75
2023-01-28T21:11:08.827Z,103112.44
2023-01-28T21:13:35.873Z,103109.28
2023-01-28T21:16:02.389Z,103099.34
2023-01-28T21:18:28.947Z,103102.91
2023-01-28T21:20:55.636Z,103108.88
2023-01-28T21:23:23.546Z,103112.56
2023-01-28T21:25:51.450Z,103102.19
2023-01-28T21:28:19.222Z,103109.03
2023-01-28T21:30:46.780Z,103107.03
2023-01-28T21:33:13.491Z,103098.66
2023-01-28T21:35:42.245Z,103105.44
2023-01-28T21:38:09.279Z,103110.31
2023-01-28T21:40:37.063Z,103110.41
2023-01-28T21:43:04.219Z,103110.56
2023-01-28T21:45:30.755Z,103114.56
2023-01-28T21:47:57.452Z,103106.03
2023-01-28T21:50:24.077Z,103116.16
2023-01-28T21:52:51.281Z,103115.34
2023-01-28T21:55:18.264Z,103119.91
2023-01-28T21:57:44.835Z,103115.34
2023-01-28T22:00:13.040Z,103113.84
2023-01-28T22:02:40.046Z,103116.38
2023-01-28T22:05:06.963Z,103115.81
2023-01-28T22:07:33.643Z,103115.34
2023-01-28T22:10:00.211Z,103112.66
2023-01-28T22:12:28.118Z,103117.75
2023-01-28T22:14:54.756Z,103115.84
2023-01-28T22:17:21.380Z,103111.59
2023-01-28T22:19:48.170Z,103107.19
2023-01-28T22:22:15.915Z,103105.34
2023-01-28T22:24:42.411Z,103111.28
2023-01-28T22:27:09.105Z,103113.94
2023-01-28T22:29:35.616Z,103115.56
2023-01-28T22:32:04.665Z,103095.38
2023-01-28T22:34:31.553Z,103101.84
2023-01-28T22:36:58.150Z,103106.25
2023-01-28T22:39:24.687Z,103096.22
2023-01-28T22:41:51.340Z,103094.72
2023-01-28T22:44:19.765Z,103103.50
2023-01-28T22:46:47.186Z,103098.56
2023-01-28T22:49:14.965Z,103100.28
2023-01-28T22:51:42.332Z,103105.28
2023-01-28T22:54:11.813Z,103111.75
2023-01-28T22:56:39.255Z,103095.38
2023-01-28T22:59:05.747Z,103084.47
2023-01-28T23:01:32.689Z,103087.06
2023-01-28T23:03:59.324Z,103086.03
2023-01-28T23:06:27.210Z,103085.78
2023-01-28T23:08:54.431Z,103071.28
2023-01-28T23:11:27.561Z,103064.88
2023-01-28T23:14:21.086Z,103068.81
2023-01-28T23:17:06.958Z,103063.31
2023-01-28T23:19:52.741Z,103071.38
2023-01-28T23:22:42.722Z,103069.22
2023-01-28T23:25:10.113Z,103059.31
2023-01-28T23:27:36.914Z,103058.44
2023-01-28T23:30:04.382Z,103063.34
2023-01-28T23:32:30.940Z,103055.59
2023-01-28T23:34:57.473Z,103052.47
2023-01-28T23:37:23.969Z,103070.75
2023-01-28T23:39:50.479Z,103071.16
2023-01-28T23:42:20.578Z,103066.03
2023-01-28T23:44:47.539Z,103055.28
2023-01-28T23:47:14.239Z,103062.94
2023-01-28T23:49:41.143Z,103075.56
2023-01-28T23:52:08.175Z,103067.56
2023-01-28T23:54:35.351Z,103066.47
2023-01-28T23:57:04.276Z,103065.06
2023-01-28T23:59:30.861Z,103060.91
